createdAt,value
2023-01-23T14:20:39.498Z,109.33
2023-01-23T14:21:30.339Z,104.67
2023-01-23T14:22:06.185Z,104.33
2023-01-23T14:22:38.552Z,102.67
2023-01-23T14:23:32.379Z,103.33
2023-01-23T14:24:20.330Z,106.33
2023-01-23T14:24:53.396Z,104.33
2023-01-23T14:25:26.278Z,104.00
2023-01-23T14:25:58.950Z,103.00
2023-01-23T14:26:32.526Z,104.00
2023-01-23T14:27:09.530Z,104.00
2023-01-23T14:27:52.887Z,104.33
2023-01-23T14:28:25.986Z,104.33
2023-01-23T14:29:03.036Z,110.67
2023-01-23T14:29:35.462Z,110.67
2023-01-23T14:30:18.224Z,120.33
2023-01-23T14:30:54.985Z,109.67
2023-01-23T14:31:29.683Z,110.00
2023-01-23T14:32:02.154Z,110.67
2023-01-23T14:32:34.540Z,114.00
2023-01-23T14:33:17.276Z,118.00
2023-01-23T14:33:50.821Z,116.00
2023-01-23T14:34:25.067Z,110.33
2023-01-23T14:34:57.476Z,112.67
2023-01-23T14:35:32.206Z,114.00
2023-01-23T14:37:04.611Z,94.67
2023-01-23T14:37:37.205Z,106.33
2023-01-23T14:38:12.459Z,112.33
2023-01-23T14:38:49.324Z,106.67
2023-01-23T14:39:24.966Z,99.67
2023-01-23T14:40:02.006Z,100.67
2023-01-23T14:40:50.807Z,107.00
2023-01-23T14:41:44.869Z,107.67
2023-01-23T14:59:16.377Z,83.00
2023-01-23T14:59:50.941Z,86.33
2023-01-23T15:00:23.966Z,76.33
2023-01-23T15:00:57.264Z,70.00
2023-01-23T15:01:29.735Z,71.67
2023-01-23T15:02:34.345Z,65.00
2023-01-23T15:03:08.479Z,74.00
2023-01-23T15:03:43.470Z,73.67
2023-01-23T15:04:23.536Z,73.67
2023-01-23T15:06:34.140Z,71.00
2023-01-23T15:07:06.631Z,84.00
2023-01-23T15:07:56.041Z,88.33
2023-01-23T15:09:49.267Z,42.67
2023-01-23T15:10:27.422Z,80.00
2023-01-23T15:11:01.827Z,97.33
2023-01-23T15:11:34.566Z,93.00
2023-01-23T15:12:08.400Z,107.00
2023-01-23T15:12:51.707Z,108.67
2023-01-23T15:13:31.650Z,96.00
2023-01-23T15:14:04.135Z,99.33
2023-01-23T15:14:39.981Z,99.33
2023-01-23T15:15:18.972Z,96.67
2023-01-23T15:16:03.219Z,101.67
2023-01-23T15:16:38.120Z,98.00
2023-01-23T15:17:21.026Z,100.00
2023-01-23T15:17:54.390Z,101.33
2023-01-23T15:18:33.216Z,99.67
2023-01-23T15:19:21.118Z,100.67
2023-01-23T15:19:59.461Z,109.00
2023-01-23T15:20:43.440Z,101.33
2023-01-23T15:21:26.272Z,102.00
2023-01-23T15:22:07.326Z,96.67
2023-01-23T15:22:39.792Z,100.00
2023-01-23T15:23:18.013Z,105.33
2023-01-23T15:24:17.355Z,99.00
2023-01-23T15:24:49.700Z,101.00
2023-01-23T15:25:28.791Z,102.67
2023-01-23T15:26:12.841Z,100.00
2023-01-23T15:26:57.219Z,100.00
2023-01-23T15:27:34.423Z,101.00
2023-01-23T15:28:32.349Z,102.67
2023-01-23T15:29:07.246Z,108.00
2023-01-23T15:29:39.574Z,105.00
2023-01-23T15:30:29.878Z,103.33
2023-01-23T15:31:02.271Z,104.00
2023-01-23T15:31:40.776Z,105.33
2023-01-23T15:32:21.774Z,104.67
2023-01-23T15:32:54.706Z,103.33
2023-01-23T15:33:31.907Z,102.67
2023-01-23T15:34:16.102Z,102.00
2023-01-23T15:34:57.557Z,102.00
2023-01-23T15:35:29.952Z,108.33
2023-01-23T15:36:08.631Z,117.33
2023-01-23T15:36:56.072Z,109.00
2023-01-23T15:37:28.435Z,106.33
2023-01-23T15:38:05.090Z,106.67
2023-01-23T15:38:37.906Z,105.67
2023-01-23T15:39:21.445Z,105.00
2023-01-23T15:39:57.367Z,104.33
2023-01-23T15:40:31.318Z,104.00
2023-01-23T15:41:09.545Z,103.33
2023-01-23T15:41:48.255Z,103.00
2023-01-23T15:42:28.279Z,105.00
2023-01-23T15:43:12.124Z,104.67
2023-01-23T15:43:44.454Z,108.00
2023-01-23T15:44:19.773Z,107.00
2023-01-23T15:44:52.111Z,106.00
2023-01-23T15:45:24.383Z,105.00
2023-01-23T15:45:56.781Z,108.67
2023-01-23T15:46:29.243Z,109.33
2023-01-23T15:47:03.400Z,108.67
2023-01-23T15:47:36.012Z,107.67
2023-01-23T15:48:08.614Z,105.67
2023-01-23T15:48:40.954Z,104.00
2023-01-23T15:49:24.460Z,109.33
2023-01-23T15:50:03.045Z,115.67
2023-01-23T15:50:35.641Z,115.00
2023-01-23T15:51:11.558Z,110.67
2023-01-23T15:51:43.925Z,106.00
2023-01-23T15:52:25.085Z,105.00
2023-01-23T15:52:57.423Z,102.33
2023-01-23T15:53:30.066Z,105.00
2023-01-23T15:54:03.874Z,102.67
2023-01-23T15:54:37.667Z,96.67
2023-01-23T15:55:10.835Z,97.67
2023-01-23T15:55:43.193Z,105.00
2023-01-23T15:56:26.605Z,106.67
2023-01-23T15:57:07.161Z,97.00
2023-01-23T15:57:41.838Z,96.00
2023-01-23T15:58:17.206Z,94.33
2023-01-23T15:58:49.521Z,94.67
2023-01-23T15:59:21.831Z,95.00
2023-01-23T15:59:54.166Z,95.00
2023-01-23T16:00:28.187Z,99.00
2023-01-23T16:01:00.520Z,121.33
2023-01-23T16:01:32.976Z,118.00
2023-01-23T16:02:08.234Z,114.00
2023-01-23T16:02:55.149Z,94.33
2023-01-23T16:03:28.801Z,99.67
2023-01-23T16:04:01.166Z,154.00
2023-01-23T16:04:34.186Z,125.00
2023-01-23T16:05:07.879Z,108.00
2023-01-23T16:05:40.809Z,87.00
2023-01-23T16:06:21.089Z,96.33
2023-01-23T16:06:53.565Z,92.33
2023-01-23T16:07:30.739Z,74.33
2023-01-23T16:08:05.816Z,74.00
2023-01-23T16:08:38.253Z,83.33
2023-01-23T16:09:47.250Z,85.00
2023-01-23T16:10:31.690Z,112.67
2023-01-23T16:11:04.074Z,113.00
2023-01-23T16:11:38.251Z,113.67
2023-01-23T16:12:17.410Z,112.33
2023-01-23T16:12:52.247Z,112.00
2023-01-23T16:13:24.565Z,110.67
2023-01-23T16:13:56.875Z,102.00
2023-01-23T16:14:29.166Z,92.33
2023-01-23T16:15:01.464Z,92.00
2023-01-23T16:15:35.310Z,91.67
2023-01-23T16:16:14.135Z,87.33
2023-01-23T16:16:47.003Z,89.33
2023-01-23T16:17:19.328Z,88.67
2023-01-23T16:17:52.371Z,89.00
2023-01-23T16:18:24.757Z,84.67
2023-01-23T16:18:57.062Z,86.67
2023-01-23T16:19:29.380Z,101.00
2023-01-23T16:20:01.805Z,146.33
2023-01-23T16:20:39.917Z,123.00
2023-01-23T16:21:28.831Z,115.67
2023-01-23T16:22:05.271Z,137.00
2023-01-23T16:22:37.937Z,121.67
2023-01-23T16:23:35.731Z,121.67
2023-01-23T16:24:21.995Z,108.00
2023-01-23T16:24:54.325Z,78.00
2023-01-23T16:25:43.625Z,69.67
2023-01-23T16:26:21.721Z,74.67
2023-01-23T16:26:56.583Z,78.67
2023-01-23T16:27:29.021Z,82.67
2023-01-23T16:28:01.411Z,74.33
2023-01-23T16:28:34.079Z,65.00
2023-01-23T16:29:13.693Z,63.33
2023-01-23T16:29:49.507Z,71.00
2023-01-23T16:30:23.543Z,75.67
2023-01-23T16:30:55.878Z,77.00
2023-01-23T16:31:28.357Z,75.00
2023-01-23T16:32:02.385Z,69.33
2023-01-23T16:32:34.896Z,70.33
2023-01-23T16:33:07.555Z,68.67
2023-01-23T16:33:39.837Z,72.33
2023-01-23T16:34:12.160Z,73.33
2023-01-23T16:34:44.496Z,75.00
2023-01-23T16:35:17.247Z,71.33
2023-01-23T16:35:52.563Z,64.33
2023-01-23T16:36:24.878Z,65.67
2023-01-23T16:36:58.825Z,78.67
2023-01-23T16:37:31.310Z,118.33
2023-01-23T16:38:04.243Z,114.00
2023-01-23T16:38:36.621Z,100.33
2023-01-23T16:39:20.376Z,99.00
2023-01-23T16:39:52.680Z,97.00
2023-01-23T16:40:27.521Z,96.33
2023-01-23T16:41:02.223Z,96.00
2023-01-23T16:41:34.572Z,110.33
2023-01-23T16:42:06.912Z,102.67
2023-01-23T16:42:39.387Z,102.00
2023-01-23T16:43:11.700Z,95.67
2023-01-23T16:43:44.045Z,81.67
2023-01-23T16:44:18.672Z,74.67
2023-01-23T16:44:51.049Z,74.00
2023-01-23T16:45:25.831Z,76.33
2023-01-23T16:45:58.337Z,87.67
2023-01-23T16:46:30.717Z,104.67
2023-01-23T16:47:03.169Z,98.67
2023-01-23T16:47:35.494Z,96.67
2023-01-23T16:48:10.979Z,95.33
2023-01-23T16:48:50.524Z,92.00
2023-01-23T16:49:22.866Z,82.67
2023-01-23T16:49:55.181Z,83.00
2023-01-23T16:50:36.789Z,82.67
2023-01-23T16:51:17.965Z,82.67
2023-01-23T16:51:59.518Z,78.33
2023-01-23T16:52:31.922Z,79.00
2023-01-23T16:53:20.810Z,81.00
2023-01-23T16:53:56.347Z,85.33
2023-01-23T16:54:28.789Z,87.33
2023-01-23T16:55:01.315Z,89.33
2023-01-23T16:55:36.938Z,100.67
2023-01-23T16:56:25.177Z,100.67
2023-01-23T16:56:58.197Z,98.33
2023-01-23T16:57:31.097Z,97.33
2023-01-23T16:58:05.357Z,94.33
2023-01-23T16:58:39.673Z,93.00
2023-01-23T16:59:16.365Z,92.67
2023-01-23T16:59:50.020Z,97.00
2023-01-23T17:00:33.951Z,104.33
2023-01-23T17:01:21.968Z,110.33
2023-01-23T17:01:54.427Z,105.67
2023-01-23T17:02:29.809Z,109.00
2023-01-23T17:03:05.119Z,107.00
2023-01-23T17:03:40.835Z,104.33
2023-01-23T17:04:16.697Z,123.00
2023-01-23T17:04:49.016Z,140.33
2023-01-23T17:05:22.309Z,170.67
2023-01-23T17:05:55.024Z,148.33
2023-01-23T17:06:27.335Z,122.00
2023-01-23T17:06:59.688Z,115.33
2023-01-23T17:07:32.047Z,117.67
2023-01-23T17:08:17.305Z,118.00
2023-01-23T17:08:50.266Z,149.00
2023-01-23T17:09:23.712Z,167.67
2023-01-23T17:09:56.108Z,150.00
2023-01-23T17:10:38.018Z,133.67
2023-01-23T17:11:24.366Z,131.00
2023-01-23T17:11:57.332Z,130.00
2023-01-23T17:12:34.090Z,123.67
2023-01-23T17:13:06.463Z,96.33
2023-01-23T17:13:38.849Z,84.33
2023-01-23T17:14:36.529Z,83.67
2023-01-23T17:15:19.958Z,98.33
2023-01-23T17:15:55.187Z,90.33
2023-01-23T17:16:28.179Z,95.33
2023-01-23T17:17:11.206Z,96.00
2023-01-23T17:17:45.370Z,94.33
2023-01-23T17:18:29.358Z,98.67
2023-01-23T17:19:09.513Z,112.00
2023-01-23T17:19:42.921Z,125.00
2023-01-23T17:20:15.367Z,134.00
2023-01-23T17:20:47.687Z,135.00
2023-01-23T17:21:23.708Z,141.33
2023-01-23T17:21:57.092Z,130.00
2023-01-23T17:22:32.472Z,128.00
2023-01-23T17:23:04.748Z,132.33
2023-01-23T17:23:37.273Z,130.00
2023-01-23T17:24:15.584Z,131.33
2023-01-23T17:24:48.079Z,149.67
2023-01-23T17:25:23.470Z,139.00
2023-01-23T17:26:00.750Z,135.33
2023-01-23T17:26:33.831Z,133.67
2023-01-23T17:27:06.220Z,132.33
2023-01-23T17:27:44.970Z,130.67
2023-01-23T17:28:19.695Z,120.33
2023-01-23T17:28:52.034Z,111.67
2023-01-23T17:29:24.801Z,109.00
2023-01-23T17:29:57.102Z,109.33
2023-01-23T17:30:29.372Z,110.00
2023-01-23T17:31:01.910Z,109.33
2023-01-23T17:31:34.396Z,107.67
2023-01-23T17:32:06.953Z,108.00
2023-01-23T17:32:40.590Z,109.67
2023-01-23T17:33:20.007Z,111.67
2023-01-23T17:33:52.746Z,112.00
2023-01-23T17:34:26.803Z,119.67
2023-01-23T17:35:02.525Z,123.00
2023-01-23T17:35:37.248Z,124.00
2023-01-23T17:36:09.589Z,124.00
2023-01-23T17:36:41.861Z,124.00
2023-01-23T17:37:22.723Z,124.00
2023-01-23T17:37:57.926Z,124.00
2023-01-23T17:38:35.200Z,124.00
2023-01-23T17:39:09.299Z,125.00
2023-01-23T17:39:41.605Z,130.67
2023-01-23T17:40:15.120Z,132.33
2023-01-23T17:40:48.269Z,132.00
2023-01-23T17:41:20.555Z,128.33
2023-01-23T17:41:52.947Z,126.67
2023-01-23T17:42:25.313Z,124.00
2023-01-23T17:42:57.648Z,120.33
2023-01-23T17:43:29.948Z,118.00
2023-01-23T17:44:02.237Z,119.33
2023-01-23T17:44:34.546Z,125.00
2023-01-23T17:45:08.834Z,125.67
2023-01-23T17:45:43.989Z,124.00
2023-01-23T17:46:22.160Z,120.00
2023-01-23T17:46:54.785Z,116.67
2023-01-23T17:47:27.388Z,115.67
2023-01-23T17:47:59.894Z,115.67
2023-01-23T17:48:34.659Z,110.00
2023-01-23T17:49:23.967Z,107.67
2023-01-23T17:49:56.669Z,109.00
2023-01-23T17:50:28.995Z,123.33
2023-01-23T17:51:01.377Z,132.00
2023-01-23T17:51:34.032Z,129.33
2023-01-23T17:52:06.615Z,128.33
2023-01-23T17:52:38.929Z,127.33
2023-01-23T17:53:13.609Z,128.67
2023-01-23T17:53:46.791Z,136.67
2023-01-23T17:54:19.784Z,134.00
2023-01-23T17:54:52.098Z,146.67
2023-01-23T17:55:28.735Z,151.33
2023-01-23T17:56:01.049Z,152.67
2023-01-23T17:56:33.436Z,155.67
2023-01-23T17:57:05.760Z,153.33
2023-01-23T17:57:38.116Z,146.00
2023-01-23T17:58:10.481Z,141.33
2023-01-23T17:58:43.301Z,135.00
2023-01-23T17:59:15.607Z,132.33
2023-01-23T17:59:47.932Z,133.33
2023-01-23T18:00:21.546Z,150.33
2023-01-23T18:00:56.032Z,158.67
2023-01-23T18:01:28.803Z,152.00
2023-01-23T18:02:01.284Z,148.00
2023-01-23T18:02:33.797Z,155.00
2023-01-23T18:03:08.566Z,158.67
2023-01-23T18:03:41.255Z,154.00
2023-01-23T18:04:20.409Z,152.00
2023-01-23T18:04:52.695Z,150.33
2023-01-23T18:05:25.740Z,149.00
2023-01-23T18:05:58.089Z,140.00
2023-01-23T18:06:30.602Z,136.33
2023-01-23T18:07:02.909Z,139.67
2023-01-23T18:07:48.530Z,136.00
2023-01-23T18:08:25.203Z,111.00
2023-01-23T18:08:57.506Z,105.67
2023-01-23T18:09:29.820Z,102.00
2023-01-23T18:10:02.114Z,97.67
2023-01-23T18:10:35.357Z,94.00
2023-01-23T18:11:16.900Z,98.67
2023-01-23T18:11:52.577Z,108.33
2023-01-23T18:12:51.483Z,115.00
2023-01-23T18:13:32.711Z,116.67
2023-01-23T18:14:42.667Z,115.33
2023-01-23T18:15:43.299Z,99.67
2023-01-23T18:16:24.843Z,101.00
2023-01-23T18:16:57.670Z,102.33
2023-01-23T18:17:40.144Z,108.33
2023-01-23T18:18:21.493Z,113.00
2023-01-23T18:19:03.719Z,112.00
2023-01-23T18:19:36.210Z,112.67
2023-01-23T18:20:28.177Z,113.00
2023-01-23T18:21:01.799Z,113.00
2023-01-23T18:21:34.306Z,112.33
2023-01-23T18:22:10.003Z,112.67
2023-01-23T18:22:42.594Z,113.00
2023-01-23T18:23:15.087Z,111.67
2023-01-23T18:23:47.823Z,108.33
2023-01-23T18:24:27.039Z,105.00
2023-01-23T18:24:59.685Z,104.67
2023-01-23T18:25:32.205Z,101.67
2023-01-23T18:26:20.786Z,101.67
2023-01-23T18:26:57.150Z,103.00
2023-01-23T18:27:31.545Z,103.00
2023-01-23T18:28:12.687Z,101.00
2023-01-23T18:28:55.537Z,101.33
2023-01-23T18:29:33.676Z,105.00
2023-01-23T18:30:50.941Z,105.00
2023-01-23T18:31:34.647Z,106.00
2023-01-23T18:32:26.510Z,107.33
2023-01-23T18:33:33.508Z,109.00
2023-01-23T18:34:42.925Z,102.33
2023-01-23T18:35:21.494Z,95.00
2023-01-23T18:36:17.455Z,96.67
2023-01-23T18:37:04.730Z,103.00
2023-01-23T18:37:51.649Z,103.33
2023-01-23T18:38:49.713Z,98.33
2023-01-23T18:39:49.850Z,168.67
2023-01-23T18:40:40.820Z,163.33
2023-01-23T18:41:22.242Z,151.00
2023-01-23T18:42:11.302Z,136.33
2023-01-23T18:43:00.747Z,119.33
2023-01-23T18:43:43.652Z,110.00
2023-01-23T18:44:24.033Z,123.00
2023-01-23T18:44:59.530Z,204.00
2023-01-23T18:45:32.437Z,250.33
2023-01-23T18:46:08.250Z,261.00
2023-01-23T18:46:41.486Z,260.67
2023-01-23T18:47:16.999Z,257.00
2023-01-23T18:47:49.563Z,244.33
2023-01-23T18:48:25.779Z,228.00
2023-01-23T18:48:58.857Z,193.33
2023-01-23T18:49:33.101Z,178.00
2023-01-23T18:50:06.757Z,147.00
2023-01-23T18:50:46.578Z,117.67
2023-01-23T18:51:40.692Z,106.67
2023-01-23T18:52:19.476Z,131.67
2023-01-23T18:53:26.558Z,107.67
2023-01-23T18:54:09.922Z,100.33
2023-01-23T18:55:07.813Z,102.33
2023-01-23T18:56:10.458Z,93.00
2023-01-23T18:56:52.518Z,110.33
2023-01-23T18:57:45.094Z,135.67
2023-01-23T18:58:41.411Z,140.33
2023-01-23T18:59:16.350Z,142.00
2023-01-23T19:00:33.000Z,143.00
2023-01-23T19:01:54.582Z,178.00
2023-01-23T19:02:31.512Z,166.00
2023-01-23T19:03:17.902Z,161.00
2023-01-23T19:03:50.812Z,158.00
2023-01-23T19:04:45.968Z,155.00
2023-01-23T19:05:33.465Z,148.67
2023-01-23T19:06:12.941Z,142.00
2023-01-23T19:06:46.117Z,127.00
2023-01-23T19:07:19.436Z,116.67
2023-01-23T19:07:51.892Z,115.67
2023-01-23T19:08:28.353Z,115.33
2023-01-23T19:09:00.852Z,118.33
2023-01-23T19:09:34.404Z,117.33
2023-01-23T19:10:12.983Z,115.67
2023-01-23T19:10:49.230Z,115.00
2023-01-23T19:11:32.838Z,118.67
2023-01-23T19:12:24.871Z,122.00
2023-01-23T19:13:12.933Z,151.33
2023-01-23T19:13:59.651Z,195.00
2023-01-23T19:14:45.351Z,184.00
2023-01-23T19:15:23.248Z,160.33
2023-01-23T19:16:13.665Z,154.33
2023-01-23T19:16:54.459Z,164.33
2023-01-23T19:17:43.403Z,169.33
2023-01-23T19:18:39.818Z,163.00
2023-01-23T19:19:26.933Z,185.67
2023-01-23T19:20:20.295Z,212.00
2023-01-23T19:21:23.091Z,207.67
2023-01-23T19:21:55.756Z,155.67
2023-01-23T19:22:43.018Z,118.00
2023-01-23T19:23:42.551Z,131.67
2023-01-23T19:24:18.145Z,123.00
2023-01-23T19:24:50.716Z,116.33
2023-01-23T19:25:23.594Z,117.00
2023-01-23T19:25:56.132Z,117.00
2023-01-23T19:26:32.056Z,112.67
2023-01-23T19:27:05.759Z,98.00
2023-01-23T19:27:38.073Z,92.33
2023-01-23T19:28:10.417Z,101.67
2023-01-23T19:28:43.330Z,114.33
2023-01-23T19:29:21.891Z,114.00
2023-01-23T19:29:54.699Z,115.67
2023-01-23T19:30:27.306Z,118.33
2023-01-23T19:30:59.895Z,109.67
2023-01-23T19:31:34.457Z,106.00
2023-01-23T19:32:09.755Z,103.00
2023-01-23T19:32:44.112Z,102.00
2023-01-23T19:33:18.080Z,99.33
2023-01-23T19:33:50.889Z,96.00
2023-01-23T19:34:23.233Z,95.33
2023-01-23T19:34:58.258Z,88.33
2023-01-23T19:35:34.986Z,86.33
2023-01-23T19:36:11.297Z,94.33
2023-01-23T19:36:43.624Z,97.67
2023-01-23T19:37:15.957Z,97.33
2023-01-23T19:37:48.466Z,92.67
2023-01-23T19:38:22.650Z,97.33
2023-01-23T19:39:06.695Z,92.33
2023-01-23T19:39:39.017Z,87.33
2023-01-23T19:40:13.547Z,90.33
2023-01-23T19:40:46.076Z,93.67
2023-01-23T19:41:24.566Z,95.00
2023-01-23T19:41:58.937Z,96.00
2023-01-23T19:42:38.760Z,103.67
2023-01-23T19:43:21.562Z,111.33
2023-01-23T19:43:56.224Z,106.67
2023-01-23T19:44:31.304Z,107.67
2023-01-23T19:45:03.869Z,105.00
2023-01-23T19:45:36.148Z,100.00
2023-01-23T19:46:08.669Z,97.33
2023-01-23T19:46:41.842Z,97.33
2023-01-23T19:47:14.224Z,105.67
2023-01-23T19:47:49.115Z,122.67
2023-01-23T19:48:21.416Z,120.33
2023-01-23T19:48:54.870Z,124.33
2023-01-23T19:49:27.330Z,121.00
2023-01-23T19:49:59.628Z,120.33
2023-01-23T19:50:31.953Z,120.00
2023-01-23T19:51:04.343Z,119.00
2023-01-23T19:51:37.409Z,117.67
2023-01-23T19:52:14.460Z,110.67
2023-01-23T19:52:48.413Z,101.00
2023-01-23T19:53:20.769Z,98.00
2023-01-23T19:53:53.813Z,90.33
2023-01-23T19:54:26.087Z,87.33
2023-01-23T19:54:58.391Z,89.33
2023-01-23T19:55:33.020Z,89.00
2023-01-23T19:56:05.682Z,90.00
2023-01-23T19:56:39.376Z,91.00
2023-01-23T19:57:13.520Z,93.33
2023-01-23T19:57:45.867Z,99.67
2023-01-23T19:58:18.173Z,99.33
2023-01-23T19:58:50.498Z,96.33
2023-01-23T19:59:23.658Z,93.33
2023-01-23T19:59:55.996Z,90.00
2023-01-23T20:00:32.577Z,88.33
2023-01-23T20:01:14.543Z,80.00
2023-01-23T20:01:50.761Z,77.67
2023-01-23T20:02:25.379Z,74.67
2023-01-23T20:02:58.348Z,74.33
2023-01-23T20:03:30.662Z,70.67
2023-01-23T20:04:04.199Z,73.67
2023-01-23T20:04:36.507Z,77.33
2023-01-23T20:05:09.261Z,78.67
2023-01-23T20:05:41.550Z,80.00
2023-01-23T20:06:13.898Z,80.67
2023-01-23T20:06:48.781Z,81.00
2023-01-23T20:07:21.081Z,82.33
2023-01-23T20:07:56.781Z,84.33
2023-01-23T20:08:29.159Z,98.67
2023-01-23T20:09:01.508Z,120.00
2023-01-23T20:09:33.836Z,143.67
2023-01-23T20:10:07.492Z,139.67
2023-01-23T20:10:39.829Z,119.00
2023-01-23T20:11:12.634Z,115.00
2023-01-23T20:11:46.235Z,115.67
2023-01-23T20:12:18.542Z,122.67
2023-01-23T20:12:52.215Z,141.33
2023-01-23T20:13:24.607Z,151.33
2023-01-23T20:13:56.923Z,165.00
2023-01-23T20:14:29.744Z,164.67
2023-01-23T20:15:02.015Z,139.00
2023-01-23T20:15:34.322Z,131.33
2023-01-23T20:16:12.585Z,130.33
2023-01-23T20:16:44.925Z,128.00
2023-01-23T20:17:17.200Z,141.33
2023-01-23T20:17:49.555Z,141.67
2023-01-23T20:18:22.227Z,117.00
2023-01-23T20:18:54.998Z,95.33
2023-01-23T20:19:27.288Z,98.33
2023-01-23T20:19:59.768Z,90.67
2023-01-23T20:20:32.103Z,84.00
2023-01-23T20:21:04.761Z,88.00
2023-01-23T20:21:37.067Z,94.00
2023-01-23T20:22:09.430Z,99.33
2023-01-23T20:22:42.871Z,104.00
2023-01-23T20:23:15.190Z,106.00
2023-01-23T20:23:48.336Z,106.33
2023-01-23T20:24:20.688Z,112.67
2023-01-23T20:24:53.013Z,121.33
2023-01-23T20:25:25.296Z,129.00
2023-01-23T20:26:01.563Z,125.67
2023-01-23T20:26:33.868Z,123.00
2023-01-23T20:27:06.143Z,121.00
2023-01-23T20:27:38.858Z,121.00
2023-01-23T20:28:11.269Z,123.67
2023-01-23T20:28:47.125Z,129.67
2023-01-23T20:29:19.451Z,131.00
2023-01-23T20:29:52.184Z,131.67
2023-01-23T20:30:24.806Z,134.00
2023-01-23T20:30:57.507Z,136.00
2023-01-23T20:31:30.259Z,138.00
2023-01-23T20:32:02.747Z,136.33
2023-01-23T20:32:35.492Z,134.00
2023-01-23T20:33:07.882Z,133.67
2023-01-23T20:33:40.420Z,133.00
2023-01-23T20:34:12.773Z,133.00
2023-01-23T20:34:45.076Z,132.00
2023-01-23T20:35:17.436Z,132.00
2023-01-23T20:35:53.860Z,132.00
2023-01-23T20:36:26.174Z,132.33
2023-01-23T20:36:58.502Z,133.67
2023-01-23T20:37:30.881Z,133.00
2023-01-23T20:38:03.199Z,133.00
2023-01-23T20:38:35.511Z,134.00
2023-01-23T20:39:07.952Z,144.33
2023-01-23T20:39:40.875Z,187.00
2023-01-23T20:40:13.263Z,211.00
2023-01-23T20:40:45.627Z,194.00
2023-01-23T20:41:19.668Z,165.33
2023-01-23T20:41:52.884Z,171.67
2023-01-23T20:42:25.216Z,191.33
2023-01-23T20:42:57.524Z,193.33
2023-01-23T20:43:29.930Z,208.00
2023-01-23T20:44:02.352Z,216.67
2023-01-23T20:44:34.638Z,224.00
2023-01-23T20:45:07.944Z,225.67
2023-01-23T20:45:51.720Z,247.67
2023-01-23T20:46:24.177Z,247.67
2023-01-23T20:46:56.512Z,234.00
2023-01-23T20:47:28.852Z,213.00
2023-01-23T20:48:01.249Z,199.67
2023-01-23T20:48:35.063Z,194.00
2023-01-23T20:49:07.362Z,167.00
2023-01-23T20:49:39.665Z,156.67
2023-01-23T20:50:12.206Z,159.33
2023-01-23T20:50:45.084Z,158.00
2023-01-23T20:51:17.461Z,147.00
2023-01-23T20:51:49.818Z,147.00
2023-01-23T20:52:40.836Z,147.33
2023-01-23T20:53:29.839Z,149.00
2023-01-23T20:54:02.159Z,150.67
2023-01-23T20:54:34.441Z,146.33
2023-01-23T20:55:07.147Z,152.00
2023-01-23T20:55:39.509Z,152.00
2023-01-23T20:56:14.701Z,149.33
2023-01-23T20:56:47.055Z,150.67
2023-01-23T20:57:19.413Z,149.67
2023-01-23T20:58:09.964Z,148.67
2023-01-23T20:59:03.069Z,146.33
2023-01-23T20:59:35.339Z,146.67
2023-01-23T21:00:08.428Z,146.67
2023-01-23T21:00:40.759Z,146.33
2023-01-23T21:01:13.618Z,144.00
2023-01-23T21:02:05.085Z,143.33
2023-01-23T21:02:37.444Z,145.33
2023-01-23T21:03:09.840Z,145.00
2023-01-23T21:03:42.323Z,145.00
2023-01-23T21:04:14.598Z,146.00
2023-01-23T21:04:47.065Z,146.67
2023-01-23T21:05:19.648Z,147.00
2023-01-23T21:05:52.287Z,147.00
2023-01-23T21:06:24.570Z,147.00
2023-01-23T21:06:57.185Z,143.00
2023-01-23T21:07:29.463Z,140.33
2023-01-23T21:08:01.796Z,141.00
2023-01-23T21:08:34.661Z,145.00
2023-01-23T21:09:06.973Z,181.33
2023-01-23T21:09:39.285Z,191.67
2023-01-23T21:10:11.644Z,192.67
2023-01-23T21:10:43.941Z,198.33
2023-01-23T21:11:19.030Z,212.67
2023-01-23T21:11:52.478Z,212.67
2023-01-23T21:12:24.765Z,200.00
2023-01-23T21:12:57.035Z,206.33
2023-01-23T21:13:29.334Z,201.67
2023-01-23T21:14:01.693Z,191.00
2023-01-23T21:14:35.539Z,187.67
2023-01-23T21:15:08.531Z,184.33
2023-01-23T21:15:41.465Z,178.67
2023-01-23T21:16:16.414Z,157.33
2023-01-23T21:16:49.493Z,158.67
2023-01-23T21:17:21.789Z,147.00
2023-01-23T21:17:54.059Z,146.67
2023-01-23T21:18:26.458Z,151.00
2023-01-23T21:18:58.763Z,153.33
2023-01-23T21:19:31.996Z,153.67
2023-01-23T21:20:04.594Z,151.33
2023-01-23T21:20:39.231Z,150.67
2023-01-23T21:21:15.051Z,147.33
2023-01-23T21:21:47.847Z,150.00
2023-01-23T21:22:20.180Z,155.33
2023-01-23T21:22:52.454Z,179.33
2023-01-23T21:23:24.759Z,178.33
2023-01-23T21:23:57.081Z,173.33
2023-01-23T21:24:29.384Z,161.67
2023-01-23T21:25:01.950Z,155.00
2023-01-23T21:25:35.646Z,157.33
2023-01-23T21:26:08.734Z,172.67
2023-01-23T21:26:41.627Z,179.00
2023-01-23T21:27:13.984Z,187.67
2023-01-23T21:27:46.303Z,181.67
2023-01-23T21:28:18.602Z,175.00
2023-01-23T21:28:52.442Z,171.00
2023-01-23T21:29:24.755Z,176.33
2023-01-23T21:29:57.082Z,178.33
2023-01-23T21:30:29.359Z,175.67
2023-01-23T21:31:13.462Z,176.00
2023-01-23T21:31:46.013Z,223.33
2023-01-23T21:32:18.356Z,235.67
2023-01-23T21:32:51.294Z,239.33
2023-01-23T21:33:24.002Z,232.00
2023-01-23T21:33:59.452Z,221.33
2023-01-23T21:34:31.762Z,208.33
2023-01-23T21:35:04.188Z,189.67
2023-01-23T21:35:36.548Z,143.33
2023-01-23T21:36:09.104Z,130.33
2023-01-23T21:36:42.751Z,127.33
2023-01-23T21:37:15.146Z,110.33
2023-01-23T21:37:47.452Z,97.00
2023-01-23T21:38:20.734Z,94.33
2023-01-23T21:38:53.608Z,93.00
2023-01-23T21:39:26.002Z,83.33
2023-01-23T21:39:58.272Z,81.00
2023-01-23T21:40:30.585Z,86.33
2023-01-23T21:41:02.915Z,97.67
2023-01-23T21:41:35.349Z,100.00
2023-01-23T21:42:07.608Z,92.00
2023-01-23T21:42:39.895Z,73.67
2023-01-23T21:43:12.196Z,66.00
2023-01-23T21:43:44.507Z,64.67
2023-01-23T21:44:17.167Z,64.33
2023-01-23T21:44:52.600Z,61.33
2023-01-23T21:45:25.989Z,62.33
2023-01-23T21:45:58.437Z,62.33
2023-01-23T21:46:30.989Z,54.67
2023-01-23T21:47:03.390Z,56.00
2023-01-23T21:47:35.670Z,69.33
2023-01-23T21:48:07.965Z,82.00
2023-01-23T21:48:40.584Z,82.67
2023-01-23T21:49:12.867Z,76.67
2023-01-23T21:49:45.316Z,81.00
2023-01-23T21:50:18.329Z,83.00
2023-01-23T21:50:50.637Z,86.33
2023-01-23T21:51:25.282Z,87.00
2023-01-23T21:51:57.577Z,85.00
2023-01-23T21:52:30.313Z,80.33
2023-01-23T21:53:02.635Z,74.67
2023-01-23T21:53:36.207Z,74.00
2023-01-23T21:54:09.162Z,72.00
2023-01-23T21:54:42.742Z,64.33
2023-01-23T21:55:15.045Z,59.33
2023-01-23T21:55:51.921Z,57.00
2023-01-23T21:56:24.568Z,63.00
2023-01-23T21:56:56.866Z,64.67
2023-01-23T21:57:29.176Z,69.00
2023-01-23T21:58:01.590Z,70.00
2023-01-23T21:58:34.234Z,69.00
2023-01-23T21:59:06.538Z,59.33
2023-01-23T21:59:38.817Z,52.67
2023-01-23T22:00:30.619Z,55.33
2023-01-23T22:01:29.245Z,51.33
2023-01-23T22:02:01.649Z,45.00
2023-01-23T22:02:34.005Z,43.67
2023-01-23T22:03:06.328Z,42.67
2023-01-23T22:03:38.611Z,41.00
2023-01-23T22:04:18.297Z,43.67
2023-01-23T22:04:50.756Z,49.67
2023-01-23T22:05:23.461Z,48.67
2023-01-23T22:05:58.942Z,44.00
2023-01-23T22:06:32.675Z,40.67
2023-01-23T22:07:04.984Z,40.33
2023-01-23T22:07:37.270Z,43.33
2023-01-23T22:08:09.582Z,41.33
2023-01-23T22:08:42.003Z,41.33
2023-01-23T22:09:17.110Z,40.67
2023-01-23T22:09:49.409Z,42.67
2023-01-23T22:10:21.776Z,42.67
2023-01-23T22:10:54.052Z,43.00
2023-01-23T22:11:26.403Z,43.00
2023-01-23T22:11:58.714Z,42.33
2023-01-23T22:12:31.004Z,41.00
2023-01-23T22:13:03.279Z,41.00
2023-01-23T22:13:36.371Z,41.67
2023-01-23T22:14:08.661Z,42.00
2023-01-23T22:14:40.977Z,41.00
2023-01-23T22:15:13.318Z,40.00
2023-01-23T22:15:45.643Z,38.33
2023-01-23T22:16:22.704Z,36.33
2023-01-23T22:16:57.722Z,35.00
2023-01-23T22:17:30.433Z,32.33